This is the latest recevied weather packets stored in our database for station/object WE1C. If no packets are shown the sender has not sent any weather packets the latest 10 day(s).
| Time | Temp. | Humidity | Pressure | Rain* | Wind** | Luminosity | Snow |
|---|---|---|---|---|---|---|---|
| 1777853587 | 6.11° C | 54% | 1037.7 hPa | 0 mm | - | 0 W/m² | - |
| 1777853284 | 6.67° C | 53% | 1037.7 hPa | 0 mm | - | 0 W/m² | - |
| 1777852981 | 6.67° C | 53% | 1038 hPa | 0 mm | - | 0 W/m² | - |
| 1777852679 | 7.22° C | 52% | 1037.7 hPa | 0 mm | - | 0 W/m² | - |
| 1777852376 | 7.78° C | 51% | 1037.8 hPa | 0 mm | - | 0 W/m² | - |
| 1777852073 | 7.78° C | 50% | 1037.6 hPa | 0 mm | - | 2 W/m² | - |
| 1777851771 | 7.78° C | 50% | 1037.6 hPa | 0 mm | - | 4 W/m² | - |
| 1777851468 | 8.33° C | 48% | 1037.6 hPa | 0 mm | - | 6 W/m² | - |
| 1777851164 | 8.33° C | 48% | 1037.6 hPa | 0 mm | - | 10 W/m² | - |
| 1777850861 | 8.33° C | 51% | 1037.6 hPa | 0 mm | - | 13 W/m² | - |
| 1777850558 | 8.89° C | 45% | 1037.6 hPa | 0 mm | - | 15 W/m² | - |
| 1777850256 | 8.89° C | 46% | 1037.3 hPa | 0 mm | - | 18 W/m² | - |
| 1777849953 | 8.89° C | 49% | 1037.5 hPa | 0 mm | - | 23 W/m² | - |
| 1777849648 | 8.89° C | 46% | 1037.2 hPa | 0 mm | - | 29 W/m² | - |
| 1777849346 | 9.44° C | 45% | 1037.2 hPa | 0 mm | - | 25 W/m² | - |
| 1777849044 | 9.44° C | 42% | 1037.4 hPa | 0 mm | - | 31 W/m² | - |
| 1777848744 | 9.44° C | 43% | 1037.2 hPa | 0 mm | - | 34 W/m² | - |
| 1777848441 | 9.44° C | 42% | 1037.1 hPa | 0 mm | - | 35 W/m² | - |
| 1777848139 | 10° C | 40% | 1037.1 hPa | 0 mm | - | 50 W/m² | - |
| 1777847836 | 9.44° C | 43% | 1037.1 hPa | 0 mm | - | 69 W/m² | - |
| 1777847533 | 9.44° C | 42% | 1037 hPa | 0 mm | - | 68 W/m² | - |
| 1777847230 | 9.44° C | 41% | 1036.9 hPa | 0 mm | - | 61 W/m² | - |
| 1777846928 | 9.44° C | 43% | 1037 hPa | 0 mm | - | 63 W/m² | - |
| 1777846626 | 10° C | 41% | 1036.9 hPa | 0 mm | - | 60 W/m² | - |
| 1777846323 | 9.44° C | 41% | 1036.7 hPa | 0 mm | - | 75 W/m² | - |
* Rain latest hour (hover to see other rain measurements)
** Current wind speed in m/s (hover to see current wind gust speed)